Time;durP1;ratioP1;P1;durP2;ratioP2;P2;SDS_P1;SDS_P2;PMS_P1;PMS_P2;Temp;Humidity;BMP_temperature;BMP_pressure;BME280_temperature;BME280_humidity;BME280_pressure;Samples;Min_cycle;Max_cycle;Signal;HPM_P1;HPM_P2
2022/06/22 00:01:27;;;;;;;30.23;14.02;;;;;;;19.03;86.64;92420.25;4804315;29;20061;-76
2022/06/22 00:03:56;;;;;;;24.92;13.20;;;;;;;19.03;85.99;92414.97;4772800;29;20422;-76
2022/06/22 00:06:42;;;;;;;33.83;13.68;;;;;;;19.03;85.32;92412.31;4773397;29;20046;-76
2022/06/22 00:09:28;;;;;;;35.05;13.32;;;;;;;19.04;84.78;92414.59;4804527;29;20546;-76
2022/06/22 00:11:55;;;;;;;32.72;13.35;;;;;;;19.06;84.49;92417.69;4788534;29;20038;-76
2022/06/22 00:14:27;;;;;;;34.78;13.88;;;;;;;19.08;84.25;92420.00;4804413;29;20043;-76
2022/06/22 00:16:54;;;;;;;29.80;12.73;;;;;;;19.06;84.07;92423.00;4804412;29;20038;-76
2022/06/22 00:19:35;;;;;;;42.78;13.77;;;;;;;19.07;83.81;92421.09;4804450;29;20241;-76
2022/06/22 00:22:01;;;;;;;26.55;13.25;;;;;;;19.06;83.17;92419.56;4788453;29;20099;-76
2022/06/22 00:24:27;;;;;;;29.98;12.95;;;;;;;19.05;83.26;92421.47;4788037;29;20413;-76
2022/06/22 00:27:36;;;;;;;31.13;12.27;;;;;;;19.06;82.64;92414.28;4804317;29;20105;-76
2022/06/22 00:30:16;;;;;;;36.67;11.73;;;;;;;19.03;81.90;92423.69;4788316;29;20481;-76
2022/06/22 00:33:22;;;;;;;29.60;10.55;;;;;;;19.00;81.53;92427.00;4787971;29;20103;-76
2022/06/22 00:36:12;;;;;;;25.27;10.05;;;;;;;18.99;81.58;92422.03;4761306;29;20198;-76
2022/06/22 00:38:37;;;;;;;24.73;9.57;;;;;;;18.98;80.67;92415.97;4804199;29;20133;-76
2022/06/22 00:41:17;;;;;;;26.35;10.55;;;;;;;18.96;80.35;92404.16;4804093;29;20122;-76
2022/06/22 00:43:42;;;;;;;28.13;10.02;;;;;;;18.93;80.50;92405.59;4803990;29;20921;-76
2022/06/22 00:46:18;;;;;;;24.23;9.73;;;;;;;18.83;80.30;92404.22;4804146;29;20403;-76
2022/06/22 00:48:46;;;;;;;33.70;10.65;;;;;;;18.84;80.36;92405.75;4787928;29;20046;-76
2022/06/22 00:51:17;;;;;;;28.48;9.70;;;;;;;18.81;80.56;92411.75;4804006;29;20043;-76
2022/06/22 00:53:55;;;;;;;21.67;10.18;;;;;;;18.80;80.73;92414.72;4803718;29;20418;-76
2022/06/22 00:56:44;;;;;;;28.73;9.95;;;;;;;18.79;80.98;92408.66;4787491;29;20100;-77
2022/06/22 00:59:24;;;;;;;26.55;9.82;;;;;;;18.78;80.63;92401.03;4803901;29;20042;-76
2022/06/22 01:01:59;;;;;;;39.47;11.45;;;;;;;18.74;80.60;92403.56;4787802;29;20043;-76
2022/06/22 01:04:27;;;;;;;29.58;10.10;;;;;;;18.72;80.19;92403.91;4787574;29;20064;-76
2022/06/22 01:07:24;;;;;;;34.15;10.80;;;;;;;18.70;80.61;92394.75;4803794;29;20102;-76
2022/06/22 01:10:05;;;;;;;26.17;10.38;;;;;;;18.69;80.86;92382.63;4804101;29;20031;-76
2022/06/22 01:12:48;;;;;;;30.70;10.35;;;;;;;18.68;80.16;92386.34;4787775;29;20470;-76
2022/06/22 01:15:30;;;;;;;25.52;10.07;;;;;;;18.67;80.01;92384.81;4807564;29;20046;-76
2022/06/22 01:18:05;;;;;;;35.15;10.95;;;;;;;18.66;80.04;92380.63;4791287;29;20471;-76
2022/06/22 01:20:31;;;;;;;26.52;10.05;;;;;;;18.64;80.37;92377.53;4807504;29;20059;-76
2022/06/22 01:23:18;;;;;;;27.42;10.13;;;;;;;18.63;80.34;92376.00;4807240;29;20106;-76
2022/06/22 01:25:55;;;;;;;28.10;10.48;;;;;;;18.64;80.18;92380.19;4807287;29;20041;-76
2022/06/22 01:28:22;;;;;;;26.17;10.70;;;;;;;18.64;79.67;92382.84;4791307;29;20042;-76
2022/06/22 01:30:53;;;;;;;23.35;11.63;;;;;;;18.64;79.56;92380.97;4807342;29;20469;-76
2022/06/22 01:33:24;;;;;;;29.73;11.30;;;;;;;18.67;79.73;92379.53;4807219;29;20542;-76
2022/06/22 01:35:58;;;;;;;26.73;11.23;;;;;;;18.71;79.78;92389.13;4807134;29;20035;-76
2022/06/22 01:38:29;;;;;;;35.25;10.43;;;;;;;18.70;80.03;92392.09;4790843;29;20054;-76
2022/06/22 01:41:09;;;;;;;25.65;9.73;;;;;;;18.69;79.82;92393.22;4807164;29;20031;-76
2022/06/22 01:43:40;;;;;;;26.25;9.35;;;;;;;18.70;79.82;92392.09;4775912;29;20095;-76
2022/06/22 01:46:26;;;;;;;26.48;10.25;;;;;;;18.70;79.91;92387.56;4790840;29;20130;-77
2022/06/22 01:49:03;;;;;;;29.55;10.45;;;;;;;18.70;80.22;92390.22;4807081;29;20039;-76
2022/06/22 01:51:35;;;;;;;24.00;10.52;;;;;;;18.71;80.39;92385.66;4807053;29;20557;-77
2022/06/22 01:54:10;;;;;;;25.70;9.20;;;;;;;18.72;81.18;92387.22;4806921;29;20046;-76
2022/06/22 01:56:45;;;;;;;27.98;9.32;;;;;;;18.70;80.89;92390.22;4807378;29;20039;-77
2022/06/22 01:59:37;;;;;;;24.25;9.75;;;;;;;18.78;78.33;92391.22;4790690;29;20184;-76
2022/06/22 02:02:26;;;;;;;24.08;9.13;;;;;;;18.76;78.60;92387.34;4790599;29;20039;-77
2022/06/22 02:05:01;;;;;;;24.77;10.30;;;;;;;18.73;78.85;92402.00;4806604;29;20042;-76
2022/06/22 02:07:45;;;;;;;20.90;10.35;;;;;;;18.72;79.46;92411.09;4806748;29;20049;-76
2022/06/22 02:10:23;;;;;;;28.70;9.95;;;;;;;18.71;79.50;92417.47;4790876;29;20382;-76
2022/06/22 02:12:52;;;;;;;33.95;10.30;;;;;;;18.71;79.76;92409.53;4806663;29;20043;-76
2022/06/22 02:15:21;;;;;;;26.17;10.38;;;;;;;18.83;81.28;92406.09;4806424;29;20035;-76
2022/06/22 02:17:49;;;;;;;27.08;11.43;;;;;;;18.80;81.70;92404.91;4790404;29;20038;-77
2022/06/22 02:20:36;;;;;;;24.27;11.18;;;;;;;18.77;81.68;92400.25;4806383;29;20051;-76
2022/06/22 02:23:07;;;;;;;24.95;11.45;;;;;;;18.77;81.54;92399.47;4806505;29;20072;-77
2022/06/22 02:25:39;;;;;;;25.95;11.35;;;;;;;18.76;81.77;92392.63;4789177;29;20525;-76
2022/06/22 02:28:04;;;;;;;31.13;12.17;;;;;;;18.74;82.01;92395.63;4790217;29;20043;-76
2022/06/22 02:30:31;;;;;;;28.35;10.80;;;;;;;18.75;82.73;92391.06;4805398;29;20367;-76
2022/06/22 02:32:57;;;;;;;31.33;10.90;;;;;;;18.70;82.15;92378.84;4789904;29;20092;-76
2022/06/22 02:35:23;;;;;;;29.05;10.18;;;;;;;18.68;82.02;92365.16;4790085;29;20497;-76
2022/06/22 02:38:02;;;;;;;30.40;9.40;;;;;;;18.60;82.19;92358.09;4806261;29;20043;-76
2022/06/22 02:40:32;;;;;;;31.92;10.70;;;;;;;18.62;81.89;92358.53;4806190;29;20513;-76
2022/06/22 02:45:43;;;;;;;24.75;9.95;;;;;;;18.62;81.71;92350.59;4777149;29;20506;-76
2022/06/22 02:48:12;;;;;;;26.08;10.00;;;;;;;18.61;81.10;92349.81;4806207;29;20035;-76
2022/06/22 02:51:00;;;;;;;27.27;9.82;;;;;;;18.61;81.05;92349.06;4805970;29;20043;-77
2022/06/22 02:53:36;;;;;;;23.60;10.38;;;;;;;18.62;81.40;92366.50;4805782;29;20070;-76
2022/06/22 02:56:05;;;;;;;26.25;9.77;;;;;;;18.61;81.25;92368.38;4806198;29;20045;-77
2022/06/22 02:58:36;;;;;;;31.92;10.98;;;;;;;18.60;80.72;92369.50;4805958;29;20035;-77
2022/06/22 03:01:12;;;;;;;22.02;9.73;;;;;;;18.61;80.36;92371.03;4805677;29;20138;-76
2022/06/22 03:03:40;;;;;;;22.50;9.48;;;;;;;18.62;79.82;92371.78;4789590;29;20042;-77
2022/06/22 03:06:09;;;;;;;32.80;8.73;;;;;;;18.69;78.34;92361.41;4805881;29;20038;-76
2022/06/22 03:08:35;;;;;;;26.00;8.23;;;;;;;18.68;77.94;92360.59;4805845;29;20076;-76
2022/06/22 03:11:04;;;;;;;21.77;7.75;;;;;;;18.69;77.70;92364.06;4805731;29;20506;-76
2022/06/22 03:13:40;;;;;;;32.13;8.15;;;;;;;18.73;76.51;92372.84;4805469;29;20051;-76
2022/06/22 03:16:10;;;;;;;33.72;8.43;;;;;;;18.77;76.16;92365.78;4805858;29;20042;-76
2022/06/22 03:18:40;;;;;;;21.42;7.63;;;;;;;18.76;76.39;92371.44;4805750;29;20128;-76
2022/06/22 03:21:11;;;;;;;31.75;7.75;;;;;;;18.73;76.27;92376.28;4805791;29;20042;-77
2022/06/22 03:23:48;;;;;;;27.58;7.95;;;;;;;18.72;76.30;92390.63;4805343;29;20047;-76
2022/06/22 03:26:28;;;;;;;18.52;7.88;;;;;;;18.70;76.56;92389.44;4805428;29;20077;-76
2022/06/22 03:29:02;;;;;;;20.77;7.47;;;;;;;18.69;76.72;92386.03;4789341;29;20544;-77
2022/06/22 03:31:37;;;;;;;25.55;8.30;;;;;;;18.70;77.02;92384.13;4805895;29;20122;-77
2022/06/22 03:34:09;;;;;;;28.38;8.23;;;;;;;18.70;77.16;92373.53;4788953;29;20618;-77
2022/06/22 03:36:41;;;;;;;21.42;8.90;;;;;;;18.71;77.38;92367.91;4788808;29;20506;-76
2022/06/22 03:39:11;;;;;;;24.55;8.98;;;;;;;18.73;77.42;92357.72;4805272;29;20087;-76
2022/06/22 03:41:44;;;;;;;30.52;9.93;;;;;;;18.75;78.56;92365.31;4805462;29;20070;-76
2022/06/22 03:44:16;;;;;;;20.92;9.40;;;;;;;18.76;78.36;92345.69;4805101;29;20046;-77
2022/06/22 03:46:47;;;;;;;26.17;9.60;;;;;;;18.78;78.61;92343.47;4805068;29;20091;-76
2022/06/22 03:49:28;;;;;;;33.80;10.00;;;;;;;18.80;78.88;92351.09;4788788;29;20046;-77
2022/06/22 03:52:01;;;;;;;20.25;8.65;;;;;;;18.81;78.29;92358.69;4805165;29;20031;-77
2022/06/22 03:54:36;;;;;;;27.17;7.00;;;;;;;18.84;76.08;92373.94;4788557;29;20039;-76
2022/06/22 03:57:07;;;;;;;23.52;7.00;;;;;;;18.80;75.67;92365.13;4804776;29;20525;-77
2022/06/22 03:59:38;;;;;;;21.88;7.15;;;;;;;18.75;76.19;92360.03;4788236;29;20047;-76
2022/06/22 04:02:04;;;;;;;23.40;8.90;;;;;;;18.74;77.25;92347.88;4804737;29;20051;-77
2022/06/22 04:04:30;;;;;;;27.73;9.15;;;;;;;18.73;78.27;92346.34;4804785;29;20035;-76
2022/06/22 04:06:56;;;;;;;24.77;10.23;;;;;;;18.81;79.34;92348.09;4804771;29;20053;-77
2022/06/22 04:09:28;;;;;;;29.05;10.05;;;;;;;18.82;80.47;92352.28;4804578;29;20113;-76
2022/06/22 04:12:04;;;;;;;27.63;9.55;;;;;;;18.82;79.63;92354.16;4804749;29;20062;-76
2022/06/22 04:15:02;;;;;;;32.53;9.80;;;;;;;18.81;79.02;92358.69;4804563;29;20035;-77
2022/06/22 04:17:42;;;;;;;19.08;8.88;;;;;;;18.82;78.98;92365.53;4787757;29;20112;-77
2022/06/22 04:20:24;;;;;;;27.58;9.68;;;;;;;18.84;79.07;92365.19;4804452;29;20049;-76
2022/06/22 04:22:55;;;;;;;23.33;9.75;;;;;;;18.86;79.27;92384.97;4788616;29;20505;-76
2022/06/22 04:25:36;;;;;;;28.92;10.45;;;;;;;18.90;79.60;92388.47;4804495;29;20039;-76
2022/06/22 04:28:05;;;;;;;22.90;9.95;;;;;;;18.95;79.50;92381.41;4804247;29;20043;-76
2022/06/22 04:30:42;;;;;;;32.65;10.93;;;;;;;18.99;79.14;92379.59;4788067;29;20059;-76
2022/06/22 04:33:28;;;;;;;28.40;11.02;;;;;;;19.06;79.63;92379.78;4773099;29;20047;-76
2022/06/22 04:36:03;;;;;;;22.08;10.52;;;;;;;19.13;80.02;92393.22;4788457;29;20529;-76
2022/06/22 04:38:52;;;;;;;22.48;10.20;;;;;;;19.20;81.08;92398.69;4804273;29;20080;-76
2022/06/22 04:41:35;;;;;;;26.67;11.23;;;;;;;19.25;81.62;92398.47;4787990;29;20034;-76
2022/06/22 04:44:24;;;;;;;26.50;9.88;;;;;;;19.32;80.87;92398.63;4804175;29;20461;-76
2022/06/22 04:46:52;;;;;;;22.48;10.50;;;;;;;19.38;80.18;92395.72;4804180;29;20487;-76
2022/06/22 04:49:50;;;;;;;33.90;11.20;;;;;;;19.49;80.00;92388.78;4803608;29;20103;-76
2022/06/22 04:52:42;;;;;;;29.67;10.52;;;;;;;19.58;80.24;92397.34;4787814;29;20042;-76
2022/06/22 04:55:14;;;;;;;28.30;11.17;;;;;;;19.69;81.61;92394.97;4804189;29;20047;-76
2022/06/22 04:57:42;;;;;;;31.08;10.43;;;;;;;19.68;78.04;92404.00;4803821;29;20303;-77
2022/06/22 05:00:16;;;;;;;23.83;9.52;;;;;;;19.68;78.27;92399.47;4803970;29;20059;-77
2022/06/22 05:02:45;;;;;;;20.30;9.88;;;;;;;19.66;79.62;92401.72;4804450;29;20045;-76
2022/06/22 05:05:33;;;;;;;29.95;12.60;;;;;;;19.67;80.50;92411.19;4804206;29;20568;-77
2022/06/22 05:08:34;;;;;;;25.63;11.10;;;;;;;19.67;81.79;92413.84;4787837;29;20045;-76
2022/06/22 05:11:31;;;;;;;28.70;11.90;;;;;;;19.70;81.68;92415.88;4785523;29;20443;-76
2022/06/22 05:13:59;;;;;;;27.13;11.43;;;;;;;19.71;81.90;92409.44;4786761;29;20510;-77
2022/06/22 05:16:30;;;;;;;30.15;11.35;;;;;;;19.70;82.12;92405.25;4803927;29;20096;-76
2022/06/22 05:18:56;;;;;;;29.52;12.27;;;;;;;19.69;82.70;92419.63;4803938;29;20050;-76
2022/06/22 05:21:43;;;;;;;35.78;11.40;;;;;;;19.68;83.50;92422.59;4803936;29;20055;-76
2022/06/22 05:24:26;;;;;;;33.25;13.20;;;;;;;19.64;85.16;92427.84;4803942;29;20434;-76
2022/06/22 05:26:56;;;;;;;31.42;11.80;;;;;;;19.63;87.33;92428.16;4787647;29;20050;-76
2022/06/22 05:29:29;;;;;;;39.53;12.82;;;;;;;19.57;88.09;92425.00;4803711;29;20042;-77
2022/06/22 05:31:59;;;;;;;44.15;13.55;;;;;;;19.50;87.93;92430.16;4787505;29;20043;-77
2022/06/22 05:34:31;;;;;;;31.17;11.55;;;;;;;19.48;86.65;92432.38;4792774;29;20261;-77
2022/06/22 05:37:02;;;;;;;44.13;12.52;;;;;;;19.41;86.81;92426.88;4792911;29;20043;-81
2022/06/22 05:39:28;;;;;;;39.45;13.88;;;;;;;19.35;87.58;92435.09;4809913;29;20039;-78
2022/06/22 05:41:54;;;;;;;43.25;14.10;;;;;;;19.28;88.97;92440.22;4799318;29;20111;-79
2022/06/22 05:44:23;;;;;;;30.60;12.85;;;;;;;19.22;89.01;92443.47;4782213;29;20046;-77
2022/06/22 05:46:52;;;;;;;30.35;11.70;;;;;;;19.15;89.31;92454.69;4788270;29;20067;-77
2022/06/22 05:49:19;;;;;;;37.65;12.65;;;;;;;19.10;90.56;92463.66;4804909;29;20482;-77
2022/06/22 05:52:09;;;;;;;27.85;12.70;;;;;;;19.05;90.96;92471.06;4804830;29;20083;-77
2022/06/22 05:54:44;;;;;;;34.17;13.52;;;;;;;19.01;91.02;92480.84;4788884;29;20107;-77
2022/06/22 05:57:26;;;;;;;34.00;11.85;;;;;;;18.96;90.57;92502.28;4788759;29;20035;-77
2022/06/22 06:00:01;;;;;;;42.28;11.10;;;;;;;18.79;86.95;92504.13;4790873;29;20059;-77
2022/06/22 06:02:59;;;;;;;38.10;12.02;;;;;;;18.64;87.85;92465.00;4807258;29;20058;-77
2022/06/22 06:05:30;;;;;;;43.00;14.00;;;;;;;18.57;89.23;92441.72;4790691;29;20351;-77
2022/06/22 06:07:59;;;;;;;42.03;13.65;;;;;;;18.52;90.65;92442.75;4807011;29;20030;-77
2022/06/22 06:10:31;;;;;;;34.45;13.85;;;;;;;18.46;95.67;92452.06;4790669;29;20129;-77
2022/06/22 06:13:02;;;;;;;30.38;12.85;;;;;;;18.46;93.88;92460.00;4790538;29;20573;-76
2022/06/22 06:15:34;;;;;;;35.13;13.27;;;;;;;18.42;93.47;92472.38;4806489;29;20039;-77
2022/06/22 06:18:01;;;;;;;35.63;11.38;;;;;;;18.39;92.78;92478.31;4806712;29;20043;-77
2022/06/22 06:20:31;;;;;;;29.85;11.60;;;;;;;18.36;92.29;92476.34;4806698;29;20398;-77
2022/06/22 06:23:04;;;;;;;34.22;10.63;;;;;;;18.30;91.99;92477.69;4790463;29;20204;-76
2022/06/22 06:28:34;;;;;;;31.67;11.23;;;;;;;18.22;91.03;92492.59;4806359;29;20103;-76
2022/06/22 06:31:06;;;;;;;25.60;11.07;;;;;;;18.16;92.25;92487.88;4790325;29;20103;-76
2022/06/22 06:33:35;;;;;;;29.70;11.67;;;;;;;18.14;91.59;92495.38;4789907;29;20413;-76
2022/06/22 06:36:37;;;;;;;23.55;11.65;;;;;;;18.10;92.43;92501.34;4806011;29;21003;-77
2022/06/22 06:39:09;;;;;;;26.95;11.82;;;;;;;18.07;92.84;92501.22;4803372;29;20054;-76
2022/06/22 06:41:45;;;;;;;27.27;12.10;;;;;;;18.05;93.98;92508.72;4789993;29;20042;-76
2022/06/22 06:44:13;;;;;;;25.33;12.18;;;;;;;18.05;95.24;92512.13;4806041;29;20042;-76
2022/06/22 06:46:46;;;;;;;25.23;11.45;;;;;;;18.01;94.32;92511.28;4789843;29;20070;-76
2022/06/22 06:49:33;;;;;;;28.80;11.60;;;;;;;18.03;95.44;92506.41;4774992;29;20521;-76
2022/06/22 06:52:03;;;;;;;26.70;13.48;;;;;;;18.01;95.29;92490.09;4806284;29;20034;-76
2022/06/22 06:54:35;;;;;;;30.27;12.48;;;;;;;18.01;95.48;92492.75;4790035;29;20375;-76
2022/06/22 06:57:10;;;;;;;38.97;13.18;;;;;;;18.01;95.58;92486.66;4789649;29;20043;-76
2022/06/22 06:59:39;;;;;;;33.10;14.45;;;;;;;17.98;99.55;92488.09;4775519;29;20115;-76
2022/06/22 07:02:14;;;;;;;40.15;14.63;;;;;;;17.95;98.52;92511.81;4790852;29;20066;-76
2022/06/22 07:04:40;;;;;;;35.05;13.98;;;;;;;17.91;98.23;92519.66;4805766;29;20463;-77
2022/06/22 07:07:24;;;;;;;40.15;15.80;;;;;;;17.89;97.93;92527.91;4789496;29;20038;-76
2022/06/22 07:09:51;;;;;;;41.08;16.17;;;;;;;17.88;97.92;92521.09;4789729;29;20574;-76
2022/06/22 07:12:29;;;;;;;33.70;15.70;;;;;;;17.86;97.80;92527.81;4788944;29;20038;-76
2022/06/22 07:14:58;;;;;;;36.72;16.17;;;;;;;17.87;100.00;92543.34;4805540;29;20111;-76
2022/06/22 07:17:25;;;;;;;41.72;18.15;;;;;;;17.87;99.28;92571.72;4805389;29;20413;-76
2022/06/22 07:20:15;;;;;;;28.98;15.00;;;;;;;17.94;98.40;92603.72;4805440;29;20189;-76
2022/06/22 07:23:07;;;;;;;28.20;13.00;;;;;;;17.80;99.84;92596.06;4789277;29;20043;-76
2022/06/22 07:25:43;;;;;;;23.65;10.98;;;;;;;17.63;100.00;92583.78;4797797;29;20406;-76
2022/06/22 07:28:13;;;;;;;24.80;11.13;;;;;;;17.54;100.00;92542.59;4789161;29;20063;-76
2022/06/22 07:30:48;;;;;;;22.60;11.45;;;;;;;17.43;100.00;92569.50;4805418;29;20039;-76
2022/06/22 07:33:20;;;;;;;30.13;11.88;;;;;;;17.36;97.95;92563.16;4789200;29;20038;-76
2022/06/22 07:36:04;;;;;;;28.58;12.55;;;;;;;17.26;99.52;92565.13;4805306;29;20406;-75
2022/06/22 07:38:36;;;;;;;25.63;12.90;;;;;;;17.23;98.80;92560.50;4804994;29;20042;-76
2022/06/22 07:41:22;;;;;;;33.50;12.75;;;;;;;17.21;99.58;92551.34;4805187;29;20082;-76
2022/06/22 07:44:16;;;;;;;28.77;12.95;;;;;;;17.15;99.16;92537.53;4805100;29;20103;-76
2022/06/22 07:47:15;;;;;;;23.60;12.95;;;;;;;17.04;98.49;92520.53;4804933;29;20043;-75
2022/06/22 07:49:53;;;;;;;24.90;13.43;;;;;;;17.01;97.24;92515.91;4786220;29;20051;-76
2022/06/22 07:52:24;;;;;;;25.90;10.45;;;;;;;16.95;94.71;92502.09;4788675;29;20043;-76
2022/06/22 07:54:55;;;;;;;22.75;11.00;;;;;;;16.90;95.10;92493.59;4805047;29;20046;-76
2022/06/22 07:57:49;;;;;;;22.43;10.30;;;;;;;16.85;95.34;92486.63;4804813;29;20047;-76
2022/06/22 08:00:21;;;;;;;17.73;8.57;;;;;;;16.80;94.60;92468.34;4804661;29;20406;-76
2022/06/22 08:02:51;;;;;;;14.90;7.63;;;;;;;16.73;93.83;92460.09;4788537;29;20406;-76
2022/06/22 08:05:26;;;;;;;12.77;6.95;;;;;;;16.64;93.59;92466.25;4803745;29;20047;-76
2022/06/22 08:08:05;;;;;;;17.23;7.50;;;;;;;16.64;93.49;92466.25;4788665;29;20119;-76
2022/06/22 08:10:40;;;;;;;14.63;7.82;;;;;;;16.66;93.76;92460.63;4804867;29;20059;-76
2022/06/22 08:13:23;;;;;;;20.48;8.05;;;;;;;16.67;97.74;92462.19;4788285;29;20046;-76
2022/06/22 08:16:15;;;;;;;13.25;7.20;;;;;;;16.71;95.88;92455.16;4804358;29;20042;-76
2022/06/22 08:18:41;;;;;;;16.85;8.50;;;;;;;16.72;96.34;92464.63;4780627;29;20102;-76
2022/06/22 08:21:13;;;;;;;17.95;7.00;;;;;;;16.91;92.69;92480.06;4804610;29;20115;-76
2022/06/22 08:23:39;;;;;;;19.52;8.65;;;;;;;16.81;96.08;92483.84;4803618;29;20046;-76
2022/06/22 08:26:10;;;;;;;15.35;8.13;;;;;;;16.78;96.04;92492.41;4804505;29;20122;-76
2022/06/22 08:28:39;;;;;;;18.92;9.05;;;;;;;16.79;97.64;92501.13;4804809;29;20031;-76
2022/06/22 08:31:04;;;;;;;17.15;8.93;;;;;;;16.82;98.33;92508.44;4804385;29;20126;-76
2022/06/22 08:33:44;;;;;;;21.95;8.68;;;;;;;16.82;98.76;92509.22;4804186;29;20122;-76
2022/06/22 08:36:18;;;;;;;24.75;9.38;;;;;;;16.84;98.28;92499.09;4804297;29;20175;-77
2022/06/22 08:38:54;;;;;;;26.50;10.68;;;;;;;16.76;99.00;92488.56;4788422;29;20087;-76
2022/06/22 08:41:40;;;;;;;19.40;9.48;;;;;;;16.71;99.16;92480.84;4804192;29;20039;-77
2022/06/22 08:44:11;;;;;;;19.02;9.07;;;;;;;16.71;99.44;92480.84;4804134;29;20121;-76
2022/06/22 08:46:51;;;;;;;15.90;7.82;;;;;;;16.74;99.27;92478.28;4788021;29;20486;-76
2022/06/22 08:49:41;;;;;;;14.55;7.28;;;;;;;16.74;99.50;92480.19;4790085;29;20042;-76
2022/06/22 08:52:35;;;;;;;25.48;8.55;;;;;;;16.76;99.59;92470.06;4789003;29;20095;-76
2022/06/22 08:55:18;;;;;;;17.27;9.07;;;;;;;16.75;100.00;92445.50;4804131;29;20072;-77
2022/06/22 08:58:04;;;;;;;20.88;9.00;;;;;;;16.77;100.00;92443.28;4787533;29;20050;-77
2022/06/22 09:00:41;;;;;;;16.25;9.20;;;;;;;16.81;100.00;92436.28;4804009;29;20355;-77
2022/06/22 09:03:21;;;;;;;15.68;8.15;;;;;;;16.92;100.00;92441.16;4803983;29;20412;-76
2022/06/22 09:05:58;;;;;;;14.10;7.47;;;;;;;17.00;100.00;92442.94;4803862;29;20409;-77
2022/06/22 09:08:58;;;;;;;15.80;7.38;;;;;;;17.10;98.45;92439.88;4788006;29;20172;-77
2022/06/22 09:11:38;;;;;;;15.65;6.60;;;;;;;17.15;97.04;92439.69;4803841;29;20050;-77
2022/06/22 09:14:26;;;;;;;14.90;7.05;;;;;;;17.23;96.14;92438.06;4803710;29;20046;-77
2022/06/22 09:17:15;;;;;;;18.67;6.90;;;;;;;17.32;95.03;92443.25;4803730;29;20047;-77
2022/06/22 09:19:46;;;;;;;13.25;7.32;;;;;;;17.41;95.69;92436.00;4787708;29;20042;-77
2022/06/22 09:22:22;;;;;;;10.45;6.78;;;;;;;17.49;96.00;92424.50;4803687;29;20402;-77
2022/06/22 09:25:02;;;;;;;11.85;6.75;;;;;;;17.64;94.79;92436.31;4787540;29;20494;-77
2022/06/22 09:28:07;;;;;;;19.55;7.50;;;;;;;17.59;96.95;92445.25;4787502;29;20071;-77
2022/06/22 09:31:03;;;;;;;21.92;8.25;;;;;;;17.59;98.95;92455.84;4787522;29;20054;-77
2022/06/22 09:34:04;;;;;;;20.58;7.30;;;;;;;17.65;97.28;92440.50;4803985;29;20046;-77
2022/06/22 09:36:54;;;;;;;16.13;7.70;;;;;;;17.76;97.62;92454.09;4783779;29;20130;-77
2022/06/22 09:39:38;;;;;;;18.08;8.23;;;;;;;17.92;99.16;92456.88;4790939;29;20175;-77
2022/06/22 09:42:25;;;;;;;15.70;7.63;;;;;;;18.06;98.46;92460.72;4791086;29;20043;-76
2022/06/22 09:45:04;;;;;;;13.35;7.43;;;;;;;18.25;96.99;92443.47;4807044;29;20114;-77
2022/06/22 09:47:49;;;;;;;12.32;6.97;;;;;;;18.36;93.93;92460.47;4790906;29;20039;-76
2022/06/22 09:50:33;;;;;;;17.75;7.53;;;;;;;18.59;90.41;92459.97;4807097;29;20047;-77
2022/06/22 09:53:07;;;;;;;18.45;8.02;;;;;;;18.73;93.71;92447.09;4807177;29;20047;-77
2022/06/22 09:56:19;;;;;;;11.35;6.45;;;;;;;18.83;88.08;92451.94;4806721;29;20038;-77
2022/06/22 09:58:51;;;;;;;11.07;6.00;;;;;;;18.95;86.84;92453.00;4791007;29;20039;-77
2022/06/22 10:01:53;;;;;;;15.10;6.95;;;;;;;18.92;89.06;92459.75;4807632;29;20047;-77
2022/06/22 10:05:02;;;;;;;15.18;7.20;;;;;;;18.91;89.06;92456.34;4808529;29;20077;-77
2022/06/22 10:07:46;;;;;;;16.50;5.63;;;;;;;19.05;84.58;92458.59;4791812;29;20099;-77
2022/06/22 10:10:33;;;;;;;10.70;6.60;;;;;;;18.76;88.49;92472.94;4807780;29;20039;-77
2022/06/22 10:13:14;;;;;;;17.98;7.07;;;;;;;18.60;89.29;92480.03;4808202;29;20043;-77
2022/06/22 10:15:46;;;;;;;16.25;7.32;;;;;;;18.57;90.26;92470.88;4807740;29;20582;-77
2022/06/22 10:18:52;;;;;;;14.50;7.50;;;;;;;18.58;89.51;92483.06;4807717;29;20508;-76
2022/06/22 10:21:51;;;;;;;16.08;7.30;;;;;;;18.51;89.52;92483.63;4807818;29;20050;-77
2022/06/22 10:24:51;;;;;;;14.85;8.00;;;;;;;18.45;93.08;92476.22;4807379;29;20057;-77
2022/06/22 10:28:02;;;;;;;15.73;8.75;;;;;;;18.39;96.25;92475.69;4748285;29;20051;-77
2022/06/22 10:30:48;;;;;;;14.60;8.35;;;;;;;18.37;95.37;92471.81;4753083;29;20055;-76
2022/06/22 10:33:27;;;;;;;17.73;10.30;;;;;;;18.28;94.59;92461.34;4807833;29;20045;-77
2022/06/22 10:36:16;;;;;;;15.88;9.45;;;;;;;18.15;94.28;92450.00;4810188;29;20138;-77
2022/06/22 10:38:58;;;;;;;25.45;10.43;;;;;;;18.05;95.12;92445.94;4792912;29;20054;-77
2022/06/22 10:45:35;;;;;;;19.30;10.77;;;;;;;17.41;99.87;92465.09;4807305;29;20059;-77
2022/06/22 10:47:32;;;;;;;23.50;11.75;;;;;;;17.23;100.00;92475.09;4791401;29;20522;-77
2022/06/22 10:50:07;;;;;;;21.52;13.27;;;;;;;17.06;100.00;92490.00;4808376;29;20110;-78
2022/06/22 10:52:55;;;;;;;23.50;11.20;;;;;;;16.97;100.00;92493.84;4790322;29;20137;-77
2022/06/22 10:55:43;;;;;;;15.95;7.97;;;;;;;16.95;100.00;92480.94;4789913;29;20049;-77
2022/06/22 10:58:37;;;;;;;18.55;7.78;;;;;;;16.98;100.00;92461.03;4806064;29;20085;-77
2022/06/22 11:01:08;;;;;;;21.35;7.90;;;;;;;17.07;100.00;92456.41;4805736;29;20046;-78
2022/06/22 11:03:46;;;;;;;20.38;8.93;;;;;;;17.16;100.00;92448.41;4805963;29;20047;-77
2022/06/22 11:06:40;;;;;;;14.05;7.43;;;;;;;17.27;100.00;92454.81;4805512;29;20408;-77
2022/06/22 11:09:47;;;;;;;13.45;6.72;;;;;;;17.50;100.00;92463.13;4805515;29;20039;-77
2022/06/22 11:12:43;;;;;;;12.10;5.95;;;;;;;17.50;98.29;92460.47;4731917;30;20107;-77
2022/06/22 11:15:32;;;;;;;15.02;6.75;;;;;;;17.45;99.13;92465.94;4805544;29;20410;-78
2022/06/22 11:18:11;;;;;;;13.75;7.25;;;;;;;17.44;99.65;92464.41;4805778;29;20495;-77
2022/06/22 11:21:12;;;;;;;16.30;7.63;;;;;;;17.58;100.00;92450.88;4805610;29;20497;-77
2022/06/22 11:23:48;;;;;;;12.55;6.80;;;;;;;17.79;100.00;92453.44;4805329;29;20448;-77
2022/06/22 11:32:56;;;;;;;14.13;6.28;;;;;;;18.15;93.44;92475.72;4716980;30;20048;-77
2022/06/22 11:35:43;;;;;;;15.05;7.18;;;;;;;18.05;97.00;92461.06;4731443;30;20479;-77
2022/06/22 11:38:14;;;;;;;14.35;7.03;;;;;;;18.01;97.63;92471.56;4797937;29;20050;-77
2022/06/22 11:40:55;;;;;;;15.70;7.97;;;;;;;17.99;97.92;92468.47;4805657;29;20074;-77
2022/06/22 11:43:30;;;;;;;19.13;8.30;;;;;;;17.96;98.18;92473.63;4805404;29;20295;-77
2022/06/22 11:46:05;;;;;;;13.38;7.40;;;;;;;17.96;99.18;92471.75;4805191;29;20323;-77
2022/06/22 11:48:56;;;;;;;13.07;7.22;;;;;;;17.99;99.95;92467.66;4788654;29;20041;-78
2022/06/22 11:51:46;;;;;;;15.82;7.43;;;;;;;18.04;100.00;92470.88;4788745;29;20053;-77
2022/06/22 11:54:36;;;;;;;13.40;7.90;;;;;;;18.14;100.00;92459.06;4805021;29;20046;-77
2022/06/22 11:57:10;;;;;;;17.67;8.30;;;;;;;18.21;100.00;92467.19;4804721;29;20043;-77
2022/06/22 12:00:09;;;;;;;16.35;7.72;;;;;;;18.20;100.00;92470.22;4804815;29;20166;-77
2022/06/22 12:02:41;;;;;;;17.20;9.80;;;;;;;18.21;100.00;92469.09;4805114;29;20043;-77
2022/06/22 12:05:54;;;;;;;17.60;7.93;;;;;;;18.16;100.00;92472.75;4788482;29;20075;-77
2022/06/22 12:08:36;;;;;;;13.98;8.23;;;;;;;18.18;100.00;92470.53;4788479;29;20043;-77
2022/06/22 12:11:33;;;;;;;12.20;7.72;;;;;;;18.20;100.00;92467.56;4788231;29;20054;-77
2022/06/22 12:17:04;;;;;;;18.17;8.50;;;;;;;18.31;100.00;92458.03;4805437;29;20155;-77
2022/06/22 12:19:35;;;;;;;14.00;7.85;;;;;;;18.42;100.00;92458.34;4804394;29;20049;-77
2022/06/22 12:22:04;;;;;;;16.00;7.93;;;;;;;18.47;100.00;92461.53;4804565;29;20050;-77
2022/06/22 12:24:58;;;;;;;14.13;7.85;;;;;;;18.50;100.00;92460.84;4788440;29;20047;-77
2022/06/22 12:27:37;;;;;;;16.00;8.38;;;;;;;18.47;100.00;92461.53;4804340;29;20406;-77
2022/06/22 12:30:31;;;;;;;15.55;9.10;;;;;;;18.49;100.00;92464.63;4804040;29;20130;-77